sensor_id;sensor_type;location;lat;lon;timestamp;P1;durP1;ratioP1;P2;durP2;ratioP2
35434;SDS011;21556;55.782;37.528;2023-03-14T00:00:36;4.17;;;1.37;;
35434;SDS011;21556;55.782;37.528;2023-03-14T00:03:02;3.00;;;1.40;;
35434;SDS011;21556;55.782;37.528;2023-03-14T00:05:28;5.10;;;1.60;;
35434;SDS011;21556;55.782;37.528;2023-03-14T00:07:54;3.10;;;1.30;;
35434;SDS011;21556;55.782;37.528;2023-03-14T00:10:20;2.87;;;1.50;;
35434;SDS011;21556;55.782;37.528;2023-03-14T00:12:46;2.20;;;1.30;;
35434;SDS011;21556;55.782;37.528;2023-03-14T00:15:12;5.93;;;1.50;;
35434;SDS011;21556;55.782;37.528;2023-03-14T00:17:38;2.00;;;1.13;;
35434;SDS011;21556;55.782;37.528;2023-03-14T00:20:05;2.30;;;1.40;;
35434;SDS011;21556;55.782;37.528;2023-03-14T00:22:37;4.17;;;1.27;;
35434;SDS011;21556;55.782;37.528;2023-03-14T00:25:04;1.75;;;0.95;;
35434;SDS011;21556;55.782;37.528;2023-03-14T00:27:31;2.87;;;1.60;;
35434;SDS011;21556;55.782;37.528;2023-03-14T00:29:58;3.60;;;1.40;;
35434;SDS011;21556;55.782;37.528;2023-03-14T00:32:24;4.57;;;1.33;;
35434;SDS011;21556;55.782;37.528;2023-03-14T00:34:50;2.93;;;1.40;;
35434;SDS011;21556;55.782;37.528;2023-03-14T00:37:16;4.00;;;1.50;;
35434;SDS011;21556;55.782;37.528;2023-03-14T00:39:42;4.03;;;1.63;;
35434;SDS011;21556;55.782;37.528;2023-03-14T00:42:09;3.83;;;1.60;;
35434;SDS011;21556;55.782;37.528;2023-03-14T00:44:38;4.43;;;1.70;;
35434;SDS011;21556;55.782;37.528;2023-03-14T00:47:06;4.85;;;1.90;;
35434;SDS011;21556;55.782;37.528;2023-03-14T00:49:32;3.47;;;2.00;;
35434;SDS011;21556;55.782;37.528;2023-03-14T00:51:58;6.10;;;2.27;;
35434;SDS011;21556;55.782;37.528;2023-03-14T00:54:27;6.20;;;2.53;;
35434;SDS011;21556;55.782;37.528;2023-03-14T00:56:53;4.80;;;2.50;;
35434;SDS011;21556;55.782;37.528;2023-03-14T00:59:19;8.17;;;2.50;;
35434;SDS011;21556;55.782;37.528;2023-03-14T01:01:44;3.63;;;2.27;;
35434;SDS011;21556;55.782;37.528;2023-03-14T01:04:11;6.37;;;2.67;;
35434;SDS011;21556;55.782;37.528;2023-03-14T01:06:38;5.40;;;2.73;;
35434;SDS011;21556;55.782;37.528;2023-03-14T01:09:13;4.20;;;2.50;;
35434;SDS011;21556;55.782;37.528;2023-03-14T01:11:41;4.23;;;2.90;;
35434;SDS011;21556;55.782;37.528;2023-03-14T01:14:07;4.30;;;2.83;;
35434;SDS011;21556;55.782;37.528;2023-03-14T01:16:33;5.53;;;2.87;;
35434;SDS011;21556;55.782;37.528;2023-03-14T01:19:00;5.30;;;2.53;;
35434;SDS011;21556;55.782;37.528;2023-03-14T01:21:30;4.77;;;2.50;;
35434;SDS011;21556;55.782;37.528;2023-03-14T01:23:58;5.27;;;3.00;;
35434;SDS011;21556;55.782;37.528;2023-03-14T01:26:26;6.70;;;3.00;;
35434;SDS011;21556;55.782;37.528;2023-03-14T01:28:54;6.43;;;3.37;;
35434;SDS011;21556;55.782;37.528;2023-03-14T01:31:21;5.03;;;2.97;;
35434;SDS011;21556;55.782;37.528;2023-03-14T01:33:48;4.97;;;2.87;;
35434;SDS011;21556;55.782;37.528;2023-03-14T01:36:14;5.27;;;3.03;;
35434;SDS011;21556;55.782;37.528;2023-03-14T01:38:42;5.67;;;2.90;;
35434;SDS011;21556;55.782;37.528;2023-03-14T01:41:12;4.33;;;2.90;;
35434;SDS011;21556;55.782;37.528;2023-03-14T01:43:42;6.43;;;3.47;;
35434;SDS011;21556;55.782;37.528;2023-03-14T01:48:51;6.47;;;3.00;;
35434;SDS011;21556;55.782;37.528;2023-03-14T01:51:27;6.63;;;3.50;;
35434;SDS011;21556;55.782;37.528;2023-03-14T01:54:24;4.57;;;3.07;;
35434;SDS011;21556;55.782;37.528;2023-03-14T01:57:08;4.75;;;3.10;;
35434;SDS011;21556;55.782;37.528;2023-03-14T01:59:39;5.63;;;3.30;;
35434;SDS011;21556;55.782;37.528;2023-03-14T02:02:09;6.57;;;3.80;;
35434;SDS011;21556;55.782;37.528;2023-03-14T02:04:39;4.80;;;3.53;;
35434;SDS011;21556;55.782;37.528;2023-03-14T02:07:14;4.47;;;3.27;;
35434;SDS011;21556;55.782;37.528;2023-03-14T02:09:53;3.77;;;2.77;;
35434;SDS011;21556;55.782;37.528;2023-03-14T02:12:24;4.73;;;2.90;;
35434;SDS011;21556;55.782;37.528;2023-03-14T02:15:08;5.53;;;3.20;;
35434;SDS011;21556;55.782;37.528;2023-03-14T02:17:51;4.97;;;3.80;;
35434;SDS011;21556;55.782;37.528;2023-03-14T02:23:15;6.78;;;3.70;;
35434;SDS011;21556;55.782;37.528;2023-03-14T02:28:15;5.57;;;3.93;;
35434;SDS011;21556;55.782;37.528;2023-03-14T02:30:42;7.87;;;3.93;;
35434;SDS011;21556;55.782;37.528;2023-03-14T02:33:16;5.37;;;3.50;;
35434;SDS011;21556;55.782;37.528;2023-03-14T02:35:48;5.90;;;4.27;;
35434;SDS011;21556;55.782;37.528;2023-03-14T02:41:13;8.43;;;4.50;;
35434;SDS011;21556;55.782;37.528;2023-03-14T02:43:45;5.80;;;4.03;;
35434;SDS011;21556;55.782;37.528;2023-03-14T02:46:14;6.55;;;4.40;;
35434;SDS011;21556;55.782;37.528;2023-03-14T02:49:03;6.97;;;4.30;;
35434;SDS011;21556;55.782;37.528;2023-03-14T02:51:32;7.63;;;4.10;;
35434;SDS011;21556;55.782;37.528;2023-03-14T02:53:59;5.50;;;4.10;;
35434;SDS011;21556;55.782;37.528;2023-03-14T02:56:25;6.20;;;4.73;;
35434;SDS011;21556;55.782;37.528;2023-03-14T02:58:51;6.00;;;4.90;;
35434;SDS011;21556;55.782;37.528;2023-03-14T03:01:33;6.67;;;4.43;;
35434;SDS011;21556;55.782;37.528;2023-03-14T03:03:59;9.47;;;5.10;;
35434;SDS011;21556;55.782;37.528;2023-03-14T03:06:27;7.18;;;4.82;;
35434;SDS011;21556;55.782;37.528;2023-03-14T03:08:53;7.70;;;4.97;;
35434;SDS011;21556;55.782;37.528;2023-03-14T03:11:18;6.40;;;4.50;;
35434;SDS011;21556;55.782;37.528;2023-03-14T03:13:44;6.67;;;5.00;;
35434;SDS011;21556;55.782;37.528;2023-03-14T03:16:11;7.57;;;4.83;;
35434;SDS011;21556;55.782;37.528;2023-03-14T03:18:38;5.87;;;4.53;;
35434;SDS011;21556;55.782;37.528;2023-03-14T03:21:04;5.87;;;4.13;;
35434;SDS011;21556;55.782;37.528;2023-03-14T03:23:31;5.47;;;4.33;;
35434;SDS011;21556;55.782;37.528;2023-03-14T03:25:57;6.23;;;5.07;;
35434;SDS011;21556;55.782;37.528;2023-03-14T03:28:23;6.63;;;3.33;;
35434;SDS011;21556;55.782;37.528;2023-03-14T03:30:50;6.67;;;4.80;;
35434;SDS011;21556;55.782;37.528;2023-03-14T03:33:16;5.83;;;4.47;;
35434;SDS011;21556;55.782;37.528;2023-03-14T03:35:47;5.43;;;3.60;;
35434;SDS011;21556;55.782;37.528;2023-03-14T03:38:18;5.30;;;4.00;;
35434;SDS011;21556;55.782;37.528;2023-03-14T03:40:48;6.07;;;4.47;;
35434;SDS011;21556;55.782;37.528;2023-03-14T03:43:14;7.13;;;4.87;;
35434;SDS011;21556;55.782;37.528;2023-03-14T03:48:08;5.67;;;4.27;;
35434;SDS011;21556;55.782;37.528;2023-03-14T03:50:35;8.03;;;4.93;;
35434;SDS011;21556;55.782;37.528;2023-03-14T03:53:03;7.60;;;5.17;;
35434;SDS011;21556;55.782;37.528;2023-03-14T03:55:29;3.50;;;2.73;;
35434;SDS011;21556;55.782;37.528;2023-03-14T03:57:55;6.43;;;4.63;;
35434;SDS011;21556;55.782;37.528;2023-03-14T04:00:21;6.33;;;5.03;;
35434;SDS011;21556;55.782;37.528;2023-03-14T04:02:47;7.83;;;5.63;;
35434;SDS011;21556;55.782;37.528;2023-03-14T04:07:49;6.63;;;4.90;;
35434;SDS011;21556;55.782;37.528;2023-03-14T04:10:22;7.30;;;4.97;;
35434;SDS011;21556;55.782;37.528;2023-03-14T04:13:05;7.10;;;4.33;;
35434;SDS011;21556;55.782;37.528;2023-03-14T04:15:33;10.30;;;4.60;;
35434;SDS011;21556;55.782;37.528;2023-03-14T04:18:03;7.70;;;5.17;;
35434;SDS011;21556;55.782;37.528;2023-03-14T04:20:30;8.97;;;5.20;;
35434;SDS011;21556;55.782;37.528;2023-03-14T04:22:56;8.23;;;5.37;;
35434;SDS011;21556;55.782;37.528;2023-03-14T04:25:25;7.07;;;4.73;;
35434;SDS011;21556;55.782;37.528;2023-03-14T04:27:55;7.33;;;5.20;;
35434;SDS011;21556;55.782;37.528;2023-03-14T04:30:24;8.90;;;5.30;;
35434;SDS011;21556;55.782;37.528;2023-03-14T04:32:53;7.90;;;4.70;;
35434;SDS011;21556;55.782;37.528;2023-03-14T04:35:22;6.17;;;4.83;;
35434;SDS011;21556;55.782;37.528;2023-03-14T04:37:51;8.70;;;5.70;;
35434;SDS011;21556;55.782;37.528;2023-03-14T04:40:19;7.32;;;5.18;;
35434;SDS011;21556;55.782;37.528;2023-03-14T04:42:46;7.77;;;5.67;;
35434;SDS011;21556;55.782;37.528;2023-03-14T04:45:13;6.33;;;5.07;;
35434;SDS011;21556;55.782;37.528;2023-03-14T04:47:41;8.43;;;5.70;;
35434;SDS011;21556;55.782;37.528;2023-03-14T04:50:10;8.90;;;5.40;;
35434;SDS011;21556;55.782;37.528;2023-03-14T04:52:37;6.60;;;4.47;;
35434;SDS011;21556;55.782;37.528;2023-03-14T04:55:04;7.33;;;5.70;;
35434;SDS011;21556;55.782;37.528;2023-03-14T04:57:30;6.83;;;5.53;;
35434;SDS011;21556;55.782;37.528;2023-03-14T04:59:57;6.10;;;5.40;;
35434;SDS011;21556;55.782;37.528;2023-03-14T05:02:49;9.07;;;5.93;;
35434;SDS011;21556;55.782;37.528;2023-03-14T05:05:35;10.73;;;5.77;;
35434;SDS011;21556;55.782;37.528;2023-03-14T05:08:37;8.20;;;4.77;;
35434;SDS011;21556;55.782;37.528;2023-03-14T05:11:14;8.80;;;4.90;;
35434;SDS011;21556;55.782;37.528;2023-03-14T05:13:54;9.00;;;5.57;;
35434;SDS011;21556;55.782;37.528;2023-03-14T05:16:40;6.90;;;4.93;;
35434;SDS011;21556;55.782;37.528;2023-03-14T05:19:17;6.87;;;4.50;;
35434;SDS011;21556;55.782;37.528;2023-03-14T05:22:09;8.40;;;5.17;;
35434;SDS011;21556;55.782;37.528;2023-03-14T05:24:50;7.40;;;4.50;;
35434;SDS011;21556;55.782;37.528;2023-03-14T05:27:36;8.83;;;5.17;;
35434;SDS011;21556;55.782;37.528;2023-03-14T05:30:21;7.27;;;5.00;;
35434;SDS011;21556;55.782;37.528;2023-03-14T05:33:06;7.20;;;5.20;;
35434;SDS011;21556;55.782;37.528;2023-03-14T05:35:54;6.77;;;4.87;;
35434;SDS011;21556;55.782;37.528;2023-03-14T05:38:40;8.33;;;5.17;;
35434;SDS011;21556;55.782;37.528;2023-03-14T05:41:36;6.23;;;4.27;;
35434;SDS011;21556;55.782;37.528;2023-03-14T05:44:14;6.90;;;4.68;;
35434;SDS011;21556;55.782;37.528;2023-03-14T05:47:03;20.53;;;5.13;;
35434;SDS011;21556;55.782;37.528;2023-03-14T05:49:49;15.17;;;4.17;;
35434;SDS011;21556;55.782;37.528;2023-03-14T05:52:43;7.07;;;3.87;;
35434;SDS011;21556;55.782;37.528;2023-03-14T05:55:29;8.60;;;3.67;;
35434;SDS011;21556;55.782;37.528;2023-03-14T05:58:08;10.43;;;3.93;;
35434;SDS011;21556;55.782;37.528;2023-03-14T06:00:43;5.77;;;4.40;;
35434;SDS011;21556;55.782;37.528;2023-03-14T06:03:23;6.70;;;3.70;;
35434;SDS011;21556;55.782;37.528;2023-03-14T06:05:49;6.33;;;3.80;;
35434;SDS011;21556;55.782;37.528;2023-03-14T06:08:17;5.77;;;3.47;;
35434;SDS011;21556;55.782;37.528;2023-03-14T06:10:45;4.53;;;3.20;;
35434;SDS011;21556;55.782;37.528;2023-03-14T06:13:11;8.70;;;4.10;;
35434;SDS011;21556;55.782;37.528;2023-03-14T06:15:37;9.40;;;3.90;;
35434;SDS011;21556;55.782;37.528;2023-03-14T06:18:03;7.93;;;3.70;;
35434;SDS011;21556;55.782;37.528;2023-03-14T06:20:30;5.40;;;3.33;;
35434;SDS011;21556;55.782;37.528;2023-03-14T06:22:57;8.23;;;3.87;;
35434;SDS011;21556;55.782;37.528;2023-03-14T06:25:23;9.23;;;4.10;;
35434;SDS011;21556;55.782;37.528;2023-03-14T06:27:49;6.17;;;3.23;;
35434;SDS011;21556;55.782;37.528;2023-03-14T06:30:16;4.60;;;3.40;;
35434;SDS011;21556;55.782;37.528;2023-03-14T06:32:43;6.80;;;3.80;;
35434;SDS011;21556;55.782;37.528;2023-03-14T06:35:12;4.63;;;3.70;;
35434;SDS011;21556;55.782;37.528;2023-03-14T06:37:40;7.22;;;4.45;;
35434;SDS011;21556;55.782;37.528;2023-03-14T06:40:08;5.90;;;3.43;;
35434;SDS011;21556;55.782;37.528;2023-03-14T06:42:59;7.37;;;3.53;;
35434;SDS011;21556;55.782;37.528;2023-03-14T06:45:27;6.85;;;4.25;;
35434;SDS011;21556;55.782;37.528;2023-03-14T06:47:55;7.82;;;3.75;;
35434;SDS011;21556;55.782;37.528;2023-03-14T06:50:26;7.17;;;3.13;;
35434;SDS011;21556;55.782;37.528;2023-03-14T06:52:53;8.80;;;3.27;;
35434;SDS011;21556;55.782;37.528;2023-03-14T06:55:23;7.30;;;3.43;;
35434;SDS011;21556;55.782;37.528;2023-03-14T06:57:49;6.83;;;3.80;;
35434;SDS011;21556;55.782;37.528;2023-03-14T07:00:16;8.03;;;4.57;;
35434;SDS011;21556;55.782;37.528;2023-03-14T07:02:42;5.97;;;3.67;;
35434;SDS011;21556;55.782;37.528;2023-03-14T07:05:17;9.13;;;3.60;;
35434;SDS011;21556;55.782;37.528;2023-03-14T07:07:43;8.40;;;3.67;;
35434;SDS011;21556;55.782;37.528;2023-03-14T07:10:09;4.30;;;3.13;;
35434;SDS011;21556;55.782;37.528;2023-03-14T07:12:35;10.00;;;3.37;;
35434;SDS011;21556;55.782;37.528;2023-03-14T07:15:01;6.47;;;3.70;;
35434;SDS011;21556;55.782;37.528;2023-03-14T07:17:28;6.63;;;3.77;;
35434;SDS011;21556;55.782;37.528;2023-03-14T07:19:55;6.13;;;3.27;;
35434;SDS011;21556;55.782;37.528;2023-03-14T07:22:22;5.97;;;3.10;;
35434;SDS011;21556;55.782;37.528;2023-03-14T07:24:48;8.83;;;3.20;;
35434;SDS011;21556;55.782;37.528;2023-03-14T07:27:14;7.27;;;3.63;;
35434;SDS011;21556;55.782;37.528;2023-03-14T07:29:40;6.50;;;3.67;;
35434;SDS011;21556;55.782;37.528;2023-03-14T07:32:07;5.30;;;3.23;;
35434;SDS011;21556;55.782;37.528;2023-03-14T07:34:33;10.27;;;4.90;;
35434;SDS011;21556;55.782;37.528;2023-03-14T07:37:00;5.07;;;3.13;;
35434;SDS011;21556;55.782;37.528;2023-03-14T07:39:25;9.83;;;4.20;;
35434;SDS011;21556;55.782;37.528;2023-03-14T07:42:07;7.50;;;4.07;;
35434;SDS011;21556;55.782;37.528;2023-03-14T07:44:41;5.73;;;3.23;;
35434;SDS011;21556;55.782;37.528;2023-03-14T07:47:07;8.50;;;3.10;;
35434;SDS011;21556;55.782;37.528;2023-03-14T07:49:33;4.30;;;2.80;;
35434;SDS011;21556;55.782;37.528;2023-03-14T07:52:01;6.40;;;3.42;;
35434;SDS011;21556;55.782;37.528;2023-03-14T07:54:27;7.37;;;3.70;;
35434;SDS011;21556;55.782;37.528;2023-03-14T07:56:53;6.03;;;3.10;;
35434;SDS011;21556;55.782;37.528;2023-03-14T07:59:20;7.03;;;3.20;;
35434;SDS011;21556;55.782;37.528;2023-03-14T08:01:46;5.95;;;3.40;;
35434;SDS011;21556;55.782;37.528;2023-03-14T08:04:12;6.00;;;3.57;;
35434;SDS011;21556;55.782;37.528;2023-03-14T08:06:38;6.20;;;3.40;;
35434;SDS011;21556;55.782;37.528;2023-03-14T08:09:04;7.50;;;3.10;;
35434;SDS011;21556;55.782;37.528;2023-03-14T08:11:30;4.67;;;3.50;;
35434;SDS011;21556;55.782;37.528;2023-03-14T08:13:56;8.70;;;3.10;;
35434;SDS011;21556;55.782;37.528;2023-03-14T08:16:21;6.70;;;4.03;;
35434;SDS011;21556;55.782;37.528;2023-03-14T08:18:47;6.75;;;3.67;;
35434;SDS011;21556;55.782;37.528;2023-03-14T08:21:13;5.33;;;3.20;;
35434;SDS011;21556;55.782;37.528;2023-03-14T08:23:39;6.70;;;3.87;;
35434;SDS011;21556;55.782;37.528;2023-03-14T08:26:06;5.47;;;3.70;;
35434;SDS011;21556;55.782;37.528;2023-03-14T08:28:32;5.93;;;3.30;;
35434;SDS011;21556;55.782;37.528;2023-03-14T08:30:59;7.87;;;4.50;;
35434;SDS011;21556;55.782;37.528;2023-03-14T08:33:26;3.97;;;3.23;;
35434;SDS011;21556;55.782;37.528;2023-03-14T08:35:54;10.15;;;5.85;;
35434;SDS011;21556;55.782;37.528;2023-03-14T08:38:21;5.78;;;3.72;;
35434;SDS011;21556;55.782;37.528;2023-03-14T08:40:46;6.17;;;4.03;;
35434;SDS011;21556;55.782;37.528;2023-03-14T08:43:13;5.70;;;3.77;;
35434;SDS011;21556;55.782;37.528;2023-03-14T08:45:38;4.95;;;3.85;;
35434;SDS011;21556;55.782;37.528;2023-03-14T08:48:04;4.85;;;3.10;;
35434;SDS011;21556;55.782;37.528;2023-03-14T08:50:30;6.55;;;3.30;;
35434;SDS011;21556;55.782;37.528;2023-03-14T08:52:56;6.93;;;3.57;;
35434;SDS011;21556;55.782;37.528;2023-03-14T08:55:25;7.40;;;3.92;;
35434;SDS011;21556;55.782;37.528;2023-03-14T08:57:55;8.13;;;3.75;;
35434;SDS011;21556;55.782;37.528;2023-03-14T09:00:21;8.05;;;3.40;;
35434;SDS011;21556;55.782;37.528;2023-03-14T09:02:50;6.43;;;3.60;;
35434;SDS011;21556;55.782;37.528;2023-03-14T09:05:16;6.30;;;3.22;;
35434;SDS011;21556;55.782;37.528;2023-03-14T09:07:42;5.77;;;4.30;;
35434;SDS011;21556;55.782;37.528;2023-03-14T09:10:10;3.55;;;2.83;;
35434;SDS011;21556;55.782;37.528;2023-03-14T09:12:36;7.82;;;4.03;;
35434;SDS011;21556;55.782;37.528;2023-03-14T09:15:02;6.32;;;3.60;;
35434;SDS011;21556;55.782;37.528;2023-03-14T09:17:31;8.75;;;3.60;;
35434;SDS011;21556;55.782;37.528;2023-03-14T09:19:57;6.40;;;3.60;;
35434;SDS011;21556;55.782;37.528;2023-03-14T09:22:22;6.90;;;3.88;;
35434;SDS011;21556;55.782;37.528;2023-03-14T09:24:49;5.95;;;3.53;;
35434;SDS011;21556;55.782;37.528;2023-03-14T09:27:15;6.25;;;3.50;;
35434;SDS011;21556;55.782;37.528;2023-03-14T09:29:43;7.25;;;3.47;;
35434;SDS011;21556;55.782;37.528;2023-03-14T09:32:09;9.88;;;4.20;;
35434;SDS011;21556;55.782;37.528;2023-03-14T09:34:34;4.70;;;3.60;;
35434;SDS011;21556;55.782;37.528;2023-03-14T09:37:00;6.45;;;3.67;;
35434;SDS011;21556;55.782;37.528;2023-03-14T09:39:26;5.72;;;3.60;;
35434;SDS011;21556;55.782;37.528;2023-03-14T09:41:52;6.43;;;2.97;;
35434;SDS011;21556;55.782;37.528;2023-03-14T09:44:27;4.13;;;2.72;;
35434;SDS011;21556;55.782;37.528;2023-03-14T09:47:04;5.18;;;3.20;;
35434;SDS011;21556;55.782;37.528;2023-03-14T09:49:37;10.88;;;3.78;;
35434;SDS011;21556;55.782;37.528;2023-03-14T09:52:10;5.20;;;3.25;;
35434;SDS011;21556;55.782;37.528;2023-03-14T09:54:49;5.50;;;3.58;;
35434;SDS011;21556;55.782;37.528;2023-03-14T09:57:20;7.65;;;3.92;;
35434;SDS011;21556;55.782;37.528;2023-03-14T09:59:50;4.72;;;3.63;;
35434;SDS011;21556;55.782;37.528;2023-03-14T10:02:20;6.70;;;3.83;;
35434;SDS011;21556;55.782;37.528;2023-03-14T10:04:48;7.95;;;3.78;;
35434;SDS011;21556;55.782;37.528;2023-03-14T10:09:45;5.32;;;3.33;;
35434;SDS011;21556;55.782;37.528;2023-03-14T10:12:14;5.38;;;3.25;;
35434;SDS011;21556;55.782;37.528;2023-03-14T10:14:47;7.38;;;3.67;;
35434;SDS011;21556;55.782;37.528;2023-03-14T10:17:18;6.40;;;3.42;;
35434;SDS011;21556;55.782;37.528;2023-03-14T10:22:23;7.25;;;4.10;;
35434;SDS011;21556;55.782;37.528;2023-03-14T10:24:57;8.25;;;4.10;;
35434;SDS011;21556;55.782;37.528;2023-03-14T10:27:29;4.85;;;2.67;;
35434;SDS011;21556;55.782;37.528;2023-03-14T10:30:01;6.95;;;3.92;;
35434;SDS011;21556;55.782;37.528;2023-03-14T10:32:34;7.03;;;3.75;;
35434;SDS011;21556;55.782;37.528;2023-03-14T10:37:31;6.78;;;3.88;;
35434;SDS011;21556;55.782;37.528;2023-03-14T10:40:00;5.75;;;3.60;;
35434;SDS011;21556;55.782;37.528;2023-03-14T10:42:49;6.30;;;3.55;;
35434;SDS011;21556;55.782;37.528;2023-03-14T10:53:46;7.15;;;3.97;;
35434;SDS011;21556;55.782;37.528;2023-03-14T10:56:22;4.90;;;3.58;;
35434;SDS011;21556;55.782;37.528;2023-03-14T11:03:57;7.28;;;4.65;;
35434;SDS011;21556;55.782;37.528;2023-03-14T11:06:33;5.55;;;3.65;;
35434;SDS011;21556;55.782;37.528;2023-03-14T11:12:03;4.40;;;3.20;;
35434;SDS011;21556;55.782;37.528;2023-03-14T11:14:46;4.80;;;2.60;;
35434;SDS011;21556;55.782;37.528;2023-03-14T11:17:30;5.15;;;3.72;;
35434;SDS011;21556;55.782;37.528;2023-03-14T11:28:46;6.93;;;3.45;;
35434;SDS011;21556;55.782;37.528;2023-03-14T11:31:24;4.25;;;3.17;;
35434;SDS011;21556;55.782;37.528;2023-03-14T11:34:08;6.50;;;3.75;;
35434;SDS011;21556;55.782;37.528;2023-03-14T11:37:04;5.03;;;3.72;;
35434;SDS011;21556;55.782;37.528;2023-03-14T11:39:40;8.00;;;3.60;;
35434;SDS011;21556;55.782;37.528;2023-03-14T11:42:11;6.68;;;3.63;;
35434;SDS011;21556;55.782;37.528;2023-03-14T11:44:41;4.25;;;3.10;;
35434;SDS011;21556;55.782;37.528;2023-03-14T11:47:25;8.98;;;3.72;;
35434;SDS011;21556;55.782;37.528;2023-03-14T11:52:50;5.68;;;3.40;;
35434;SDS011;21556;55.782;37.528;2023-03-14T11:55:28;6.22;;;3.83;;
35434;SDS011;21556;55.782;37.528;2023-03-14T11:58:00;6.95;;;3.60;;
35434;SDS011;21556;55.782;37.528;2023-03-14T12:00:35;4.97;;;3.33;;
35434;SDS011;21556;55.782;37.528;2023-03-14T12:11:15;7.03;;;3.47;;
35434;SDS011;21556;55.782;37.528;2023-03-14T12:13:52;6.45;;;3.42;;
35434;SDS011;21556;55.782;37.528;2023-03-14T12:18:47;7.40;;;3.40;;
35434;SDS011;21556;55.782;37.528;2023-03-14T12:21:14;8.93;;;4.20;;
35434;SDS011;21556;55.782;37.528;2023-03-14T12:23:45;6.05;;;3.72;;
35434;SDS011;21556;55.782;37.528;2023-03-14T12:26:19;5.38;;;3.40;;
35434;SDS011;21556;55.782;37.528;2023-03-14T12:28:52;8.38;;;3.35;;
35434;SDS011;21556;55.782;37.528;2023-03-14T12:31:38;4.72;;;2.88;;
35434;SDS011;21556;55.782;37.528;2023-03-14T12:39:27;6.03;;;3.30;;
35434;SDS011;21556;55.782;37.528;2023-03-14T12:44:54;8.87;;;3.27;;
35434;SDS011;21556;55.782;37.528;2023-03-14T12:50:12;4.25;;;2.85;;
35434;SDS011;21556;55.782;37.528;2023-03-14T13:00:59;6.40;;;3.92;;
35434;SDS011;21556;55.782;37.528;2023-03-14T13:03:43;7.55;;;3.78;;
35434;SDS011;21556;55.782;37.528;2023-03-14T13:06:12;7.75;;;3.25;;
35434;SDS011;21556;55.782;37.528;2023-03-14T13:09:06;7.10;;;3.65;;
35434;SDS011;21556;55.782;37.528;2023-03-14T13:11:56;5.75;;;3.33;;
35434;SDS011;21556;55.782;37.528;2023-03-14T13:14:28;7.25;;;3.42;;
35434;SDS011;21556;55.782;37.528;2023-03-14T13:16:59;6.50;;;3.58;;
35434;SDS011;21556;55.782;37.528;2023-03-14T13:19:29;4.80;;;3.38;;
35434;SDS011;21556;55.782;37.528;2023-03-14T13:22:04;7.07;;;3.30;;
35434;SDS011;21556;55.782;37.528;2023-03-14T13:24:40;8.23;;;3.45;;
35434;SDS011;21556;55.782;37.528;2023-03-14T13:27:08;5.38;;;3.13;;
35434;SDS011;21556;55.782;37.528;2023-03-14T13:29:48;5.57;;;3.33;;
35434;SDS011;21556;55.782;37.528;2023-03-14T13:32:20;7.07;;;3.92;;
35434;SDS011;21556;55.782;37.528;2023-03-14T13:34:47;10.35;;;3.53;;
35434;SDS011;21556;55.782;37.528;2023-03-14T13:37:21;5.38;;;3.22;;
35434;SDS011;21556;55.782;37.528;2023-03-14T13:39:56;7.75;;;3.17;;
35434;SDS011;21556;55.782;37.528;2023-03-14T13:42:26;7.32;;;3.75;;
35434;SDS011;21556;55.782;37.528;2023-03-14T13:44:54;5.28;;;3.60;;
35434;SDS011;21556;55.782;37.528;2023-03-14T13:47:23;6.47;;;3.50;;
35434;SDS011;21556;55.782;37.528;2023-03-14T13:49:51;5.70;;;3.47;;
35434;SDS011;21556;55.782;37.528;2023-03-14T13:52:31;4.38;;;3.30;;
35434;SDS011;21556;55.782;37.528;2023-03-14T13:55:02;4.05;;;2.90;;
35434;SDS011;21556;55.782;37.528;2023-03-14T13:57:48;4.60;;;3.10;;
35434;SDS011;21556;55.782;37.528;2023-03-14T14:00:26;7.95;;;3.33;;
35434;SDS011;21556;55.782;37.528;2023-03-14T14:02:53;6.03;;;3.33;;
35434;SDS011;21556;55.782;37.528;2023-03-14T14:05:21;6.18;;;2.92;;
35434;SDS011;21556;55.782;37.528;2023-03-14T14:07:48;4.65;;;3.15;;
35434;SDS011;21556;55.782;37.528;2023-03-14T14:10:16;4.32;;;3.08;;
35434;SDS011;21556;55.782;37.528;2023-03-14T14:12:43;3.92;;;2.92;;
35434;SDS011;21556;55.782;37.528;2023-03-14T14:15:18;3.47;;;2.95;;
35434;SDS011;21556;55.782;37.528;2023-03-14T14:18:03;4.80;;;3.50;;
35434;SDS011;21556;55.782;37.528;2023-03-14T14:20:36;6.13;;;3.45;;
35434;SDS011;21556;55.782;37.528;2023-03-14T14:23:07;4.75;;;3.15;;
35434;SDS011;21556;55.782;37.528;2023-03-14T14:25:36;5.68;;;3.22;;
35434;SDS011;21556;55.782;37.528;2023-03-14T14:30:47;6.53;;;4.00;;
35434;SDS011;21556;55.782;37.528;2023-03-14T14:33:25;8.02;;;3.10;;
35434;SDS011;21556;55.782;37.528;2023-03-14T14:35:52;5.25;;;3.30;;
35434;SDS011;21556;55.782;37.528;2023-03-14T14:38:23;7.10;;;3.47;;
35434;SDS011;21556;55.782;37.528;2023-03-14T14:40:51;3.90;;;3.08;;
35434;SDS011;21556;55.782;37.528;2023-03-14T14:43:24;5.13;;;3.22;;
35434;SDS011;21556;55.782;37.528;2023-03-14T14:45:53;6.57;;;3.13;;
35434;SDS011;21556;55.782;37.528;2023-03-14T14:48:22;6.35;;;3.10;;
35434;SDS011;21556;55.782;37.528;2023-03-14T14:51:00;4.47;;;3.08;;
35434;SDS011;21556;55.782;37.528;2023-03-14T14:58:55;6.47;;;3.40;;
35434;SDS011;21556;55.782;37.528;2023-03-14T15:01:37;5.72;;;3.92;;
35434;SDS011;21556;55.782;37.528;2023-03-14T15:04:12;6.22;;;3.25;;
35434;SDS011;21556;55.782;37.528;2023-03-14T15:06:43;6.47;;;3.03;;
35434;SDS011;21556;55.782;37.528;2023-03-14T15:09:13;5.03;;;3.42;;
35434;SDS011;21556;55.782;37.528;2023-03-14T15:11:42;5.88;;;3.00;;
35434;SDS011;21556;55.782;37.528;2023-03-14T15:14:08;5.80;;;3.45;;
35434;SDS011;21556;55.782;37.528;2023-03-14T15:16:34;7.75;;;3.58;;
35434;SDS011;21556;55.782;37.528;2023-03-14T15:19:02;5.00;;;3.22;;
35434;SDS011;21556;55.782;37.528;2023-03-14T15:21:35;6.55;;;3.75;;
35434;SDS011;21556;55.782;37.528;2023-03-14T15:24:01;6.38;;;3.13;;
35434;SDS011;21556;55.782;37.528;2023-03-14T15:26:27;6.65;;;3.28;;
35434;SDS011;21556;55.782;37.528;2023-03-14T15:28:54;4.78;;;3.08;;
35434;SDS011;21556;55.782;37.528;2023-03-14T15:31:20;5.22;;;2.80;;
35434;SDS011;21556;55.782;37.528;2023-03-14T15:33:47;6.45;;;2.97;;
35434;SDS011;21556;55.782;37.528;2023-03-14T15:36:26;6.68;;;3.40;;
35434;SDS011;21556;55.782;37.528;2023-03-14T15:38:54;6.38;;;3.42;;
35434;SDS011;21556;55.782;37.528;2023-03-14T15:41:21;4.68;;;3.17;;
35434;SDS011;21556;55.782;37.528;2023-03-14T15:43:48;5.15;;;3.00;;
35434;SDS011;21556;55.782;37.528;2023-03-14T15:46:14;5.57;;;3.22;;
35434;SDS011;21556;55.782;37.528;2023-03-14T15:48:42;6.15;;;3.40;;
35434;SDS011;21556;55.782;37.528;2023-03-14T15:51:11;6.93;;;3.03;;
35434;SDS011;21556;55.782;37.528;2023-03-14T15:53:38;3.92;;;2.92;;
35434;SDS011;21556;55.782;37.528;2023-03-14T15:56:05;6.90;;;2.97;;
35434;SDS011;21556;55.782;37.528;2023-03-14T15:58:32;6.45;;;3.70;;
35434;SDS011;21556;55.782;37.528;2023-03-14T16:01:01;5.03;;;2.92;;
35434;SDS011;21556;55.782;37.528;2023-03-14T16:03:28;5.53;;;3.60;;
35434;SDS011;21556;55.782;37.528;2023-03-14T16:08:23;7.22;;;3.50;;
35434;SDS011;21556;55.782;37.528;2023-03-14T16:10:51;5.50;;;2.77;;
35434;SDS011;21556;55.782;37.528;2023-03-14T16:13:17;5.22;;;2.80;;
35434;SDS011;21556;55.782;37.528;2023-03-14T16:15:52;7.07;;;3.35;;
35434;SDS011;21556;55.782;37.528;2023-03-14T16:18:23;5.10;;;3.85;;
35434;SDS011;21556;55.782;37.528;2023-03-14T16:20:57;4.22;;;2.97;;
35434;SDS011;21556;55.782;37.528;2023-03-14T16:23:29;6.80;;;3.55;;
35434;SDS011;21556;55.782;37.528;2023-03-14T16:25:55;5.32;;;3.38;;